createdAt,value
2022-09-26T00:00:44.775Z,0.00
2022-09-26T00:01:44.840Z,0.00
2022-09-26T00:02:44.845Z,0.00
2022-09-26T00:03:44.741Z,0.00
2022-09-26T00:04:44.824Z,0.00
2022-09-26T00:05:44.726Z,0.00
2022-09-26T00:06:44.810Z,0.00
2022-09-26T00:07:44.695Z,0.00
2022-09-26T00:08:44.687Z,0.00
2022-09-26T00:09:44.800Z,0.00
2022-09-26T00:10:44.660Z,0.00
2022-09-26T00:11:44.693Z,0.00
2022-09-26T00:12:44.669Z,0.00
2022-09-26T00:13:44.629Z,0.00
2022-09-26T00:14:44.634Z,0.00
2022-09-26T00:15:44.632Z,0.00
2022-09-26T00:16:44.729Z,0.00
2022-09-26T00:17:44.627Z,0.00
2022-09-26T00:18:44.585Z,0.00
2022-09-26T00:19:44.586Z,0.00
2022-09-26T00:20:44.563Z,0.00
2022-09-26T00:21:44.540Z,0.00
2022-09-26T00:22:44.534Z,0.00
2022-09-26T00:23:44.550Z,0.00
2022-09-26T00:24:44.546Z,0.00
2022-09-26T00:25:44.531Z,0.00
2022-09-26T00:26:44.508Z,0.00
2022-09-26T00:27:44.494Z,0.00
2022-09-26T00:28:44.477Z,0.00
2022-09-26T00:29:44.518Z,0.00
2022-09-26T00:30:44.521Z,0.00
2022-09-26T00:31:44.434Z,0.00
2022-09-26T00:32:44.422Z,0.00
2022-09-26T00:33:44.431Z,0.00
2022-09-26T00:34:44.419Z,0.00
2022-09-26T00:35:44.417Z,0.00
2022-09-26T00:36:44.505Z,0.00
2022-09-26T00:37:44.371Z,0.00
2022-09-26T00:38:44.556Z,0.00
2022-09-26T00:39:44.354Z,0.00
2022-09-26T00:40:44.435Z,0.00
2022-09-26T00:41:44.342Z,0.00
2022-09-26T00:42:44.341Z,0.00
2022-09-26T00:43:44.337Z,0.00
2022-09-26T00:44:44.306Z,0.00
2022-09-26T00:45:44.391Z,0.00
2022-09-26T00:46:44.298Z,0.00
2022-09-26T00:47:44.262Z,0.00
2022-09-26T00:48:44.328Z,0.00
2022-09-26T00:49:44.237Z,0.00
2022-09-26T00:50:44.228Z,0.00
2022-09-26T00:51:44.219Z,0.00
2022-09-26T00:52:44.207Z,0.00
2022-09-26T00:53:44.278Z,0.00
2022-09-26T00:54:44.225Z,0.00
2022-09-26T00:55:44.172Z,0.00
2022-09-26T00:56:44.181Z,0.00
2022-09-26T00:57:44.167Z,0.00
2022-09-26T00:58:44.168Z,0.00
2022-09-26T00:59:44.137Z,0.00
2022-09-26T01:00:44.180Z,0.00
2022-09-26T01:01:44.297Z,0.00
2022-09-26T01:02:44.151Z,0.00
2022-09-26T01:03:44.140Z,0.00
2022-09-26T01:04:44.087Z,0.00
2022-09-26T01:05:44.069Z,0.00
2022-09-26T01:06:44.121Z,0.00
2022-09-26T01:07:44.038Z,0.00
2022-09-26T01:08:44.056Z,0.00
2022-09-26T01:09:44.026Z,0.00
2022-09-26T01:10:44.011Z,0.00
2022-09-26T01:11:44.002Z,0.00
2022-09-26T01:12:44.029Z,0.00
2022-09-26T01:13:44.014Z,0.00
2022-09-26T01:14:43.981Z,0.00
2022-09-26T01:15:43.981Z,0.00
2022-09-26T01:16:44.100Z,0.00
2022-09-26T01:17:43.933Z,0.00
2022-09-26T01:18:43.976Z,0.00
2022-09-26T01:19:43.912Z,0.00
2022-09-26T01:20:43.902Z,0.00
2022-09-26T01:21:43.902Z,0.00
2022-09-26T01:22:43.888Z,0.00
2022-09-26T01:23:43.885Z,0.00
2022-09-26T01:24:43.894Z,0.00
2022-09-26T01:25:43.842Z,0.00
2022-09-26T01:26:43.832Z,0.00
2022-09-26T01:27:43.820Z,0.00
2022-09-26T01:28:43.833Z,0.00
2022-09-26T01:29:43.818Z,0.00
2022-09-26T01:30:43.882Z,0.00
2022-09-26T01:31:43.778Z,0.00
2022-09-26T01:32:43.771Z,0.00
2022-09-26T01:33:43.803Z,0.00
2022-09-26T01:34:43.778Z,0.00
2022-09-26T01:35:43.743Z,0.00
2022-09-26T01:36:43.762Z,0.00
2022-09-26T01:37:43.711Z,0.00
2022-09-26T01:38:43.734Z,0.00
2022-09-26T01:39:43.696Z,0.00
2022-09-26T01:40:43.875Z,0.00
2022-09-26T01:41:43.672Z,0.00
2022-09-26T01:42:43.682Z,0.00
2022-09-26T01:43:43.654Z,0.00
2022-09-26T01:44:43.635Z,0.00
2022-09-26T01:45:43.771Z,0.00
2022-09-26T01:46:43.631Z,0.00
2022-09-26T01:47:43.607Z,0.00
2022-09-26T01:48:43.652Z,0.00
2022-09-26T01:49:43.588Z,0.00
2022-09-26T01:50:43.577Z,0.00
2022-09-26T01:51:43.562Z,0.00
2022-09-26T01:52:43.554Z,0.00
2022-09-26T01:53:43.561Z,0.00
2022-09-26T01:54:43.590Z,0.00
2022-09-26T01:55:43.539Z,0.00
2022-09-26T01:56:43.513Z,0.00
2022-09-26T01:57:43.499Z,0.00
2022-09-26T01:58:43.519Z,0.00
2022-09-26T01:59:43.491Z,0.00
2022-09-26T02:00:43.547Z,0.00
2022-09-26T02:01:43.611Z,0.00
2022-09-26T02:02:43.505Z,0.00
2022-09-26T02:03:43.435Z,0.00
2022-09-26T02:04:43.439Z,0.00
2022-09-26T02:05:43.418Z,0.00
2022-09-26T02:06:43.443Z,0.00
2022-09-26T02:07:43.386Z,0.00
2022-09-26T02:08:43.380Z,0.00
2022-09-26T02:09:43.387Z,0.00
2022-09-26T02:10:43.357Z,0.00
2022-09-26T02:11:43.345Z,0.00
2022-09-26T02:12:43.363Z,0.00
2022-09-26T02:13:43.333Z,0.00
2022-09-26T02:14:43.336Z,0.00
2022-09-26T02:15:43.304Z,0.00
2022-09-26T02:16:43.374Z,0.00
2022-09-26T02:17:43.384Z,0.00
2022-09-26T02:18:43.303Z,0.00
2022-09-26T02:19:43.276Z,0.00
2022-09-26T02:20:43.249Z,0.00
2022-09-26T02:21:43.239Z,0.00
2022-09-26T02:22:43.256Z,0.00
2022-09-26T02:23:43.216Z,0.00
2022-09-26T02:24:43.246Z,0.00
2022-09-26T02:25:43.195Z,0.00
2022-09-26T02:26:43.178Z,0.00
2022-09-26T02:27:43.226Z,0.00
2022-09-26T02:28:43.184Z,0.00
2022-09-26T02:29:43.197Z,0.00
2022-09-26T02:30:43.171Z,0.00
2022-09-26T02:31:43.228Z,0.00
2022-09-26T02:32:43.118Z,0.00
2022-09-26T02:33:43.122Z,0.00
2022-09-26T02:34:43.109Z,0.00
2022-09-26T02:35:43.149Z,0.00
2022-09-26T02:36:43.073Z,0.00
2022-09-26T02:37:43.069Z,0.00
2022-09-26T02:38:43.065Z,0.00
2022-09-26T02:39:43.061Z,0.00
2022-09-26T02:40:43.146Z,0.00
2022-09-26T02:41:43.057Z,0.00
2022-09-26T02:42:43.031Z,0.00
2022-09-26T02:43:42.999Z,0.00
2022-09-26T02:44:42.998Z,0.00
2022-09-26T02:45:43.043Z,0.00
2022-09-26T02:46:42.972Z,0.00
2022-09-26T02:47:43.010Z,0.00
2022-09-26T02:48:42.938Z,0.00
2022-09-26T02:49:42.964Z,0.00
2022-09-26T02:50:42.925Z,0.00
2022-09-26T02:51:42.917Z,0.00
2022-09-26T02:52:42.907Z,0.00
2022-09-26T02:53:42.958Z,0.00
2022-09-26T02:54:42.920Z,0.00
2022-09-26T02:55:42.883Z,0.00
2022-09-26T02:56:42.879Z,0.00
2022-09-26T02:57:42.841Z,0.00
2022-09-26T02:58:42.845Z,0.00
2022-09-26T02:59:42.882Z,0.00
2022-09-26T03:00:42.942Z,0.00
2022-09-26T03:01:42.937Z,0.00
2022-09-26T03:02:42.784Z,0.00
2022-09-26T03:03:42.863Z,0.00
2022-09-26T03:04:42.850Z,0.00
2022-09-26T03:05:42.800Z,0.00
2022-09-26T03:06:42.744Z,0.00
2022-09-26T03:07:42.735Z,0.00
2022-09-26T03:08:42.722Z,0.00
2022-09-26T03:09:42.728Z,0.00
2022-09-26T03:10:42.722Z,0.00
2022-09-26T03:11:42.750Z,0.00
2022-09-26T03:12:42.695Z,0.00
2022-09-26T03:13:42.670Z,0.00
2022-09-26T03:14:42.675Z,0.00
2022-09-26T03:15:42.641Z,0.00
2022-09-26T03:16:42.783Z,0.00
2022-09-26T03:17:42.660Z,0.00
2022-09-26T03:18:42.630Z,0.00
2022-09-26T03:19:42.633Z,0.00
2022-09-26T03:20:42.614Z,0.00
2022-09-26T03:21:42.607Z,0.00
2022-09-26T03:22:42.577Z,0.00
2022-09-26T03:23:42.661Z,0.00
2022-09-26T03:24:42.569Z,0.00
2022-09-26T03:25:42.537Z,0.00
2022-09-26T03:26:42.529Z,0.00
2022-09-26T03:27:42.519Z,0.00
2022-09-26T03:28:42.509Z,0.00
2022-09-26T03:29:42.565Z,0.00
2022-09-26T03:30:42.487Z,0.00
2022-09-26T03:31:42.559Z,0.00
2022-09-26T03:32:42.470Z,0.00
2022-09-26T03:33:42.455Z,0.00
2022-09-26T03:34:42.479Z,0.00
2022-09-26T03:35:42.474Z,0.00
2022-09-26T03:36:42.417Z,0.00
2022-09-26T03:37:42.429Z,0.00
2022-09-26T03:38:42.397Z,0.00
2022-09-26T03:39:42.399Z,0.00
2022-09-26T03:40:42.454Z,0.00
2022-09-26T03:41:42.388Z,0.00
2022-09-26T03:42:42.361Z,0.00
2022-09-26T03:43:42.339Z,0.00
2022-09-26T03:44:42.348Z,0.00
2022-09-26T03:45:42.366Z,0.00
2022-09-26T03:46:42.312Z,0.00
2022-09-26T03:47:42.336Z,0.00
2022-09-26T03:48:42.287Z,0.00
2022-09-26T03:49:43.311Z,0.00
2022-09-26T03:50:42.287Z,0.00
2022-09-26T03:51:42.268Z,0.00
2022-09-26T03:52:42.241Z,0.00
2022-09-26T03:53:42.302Z,0.00
2022-09-26T03:54:42.241Z,0.00
2022-09-26T03:55:42.209Z,0.00
2022-09-26T03:56:42.198Z,0.00
2022-09-26T03:57:42.193Z,0.00
2022-09-26T03:58:42.195Z,0.00
2022-09-26T03:59:42.193Z,0.00
2022-09-26T04:00:42.214Z,0.00
2022-09-26T04:01:42.152Z,0.00
2022-09-26T04:02:42.209Z,0.00
2022-09-26T04:03:46.451Z,0.00
2022-09-26T04:04:43.196Z,0.00
2022-09-26T04:05:42.116Z,0.00
2022-09-26T04:06:42.116Z,0.00
2022-09-26T04:07:42.089Z,0.00
2022-09-26T04:08:42.110Z,0.00
2022-09-26T04:09:42.104Z,0.00
2022-09-26T04:10:42.048Z,0.00
2022-09-26T04:11:42.050Z,0.00
2022-09-26T04:12:42.057Z,0.00
2022-09-26T04:13:57.139Z,0.00
2022-09-26T04:14:43.020Z,0.00
2022-09-26T04:15:42.046Z,0.00
2022-09-26T04:16:42.109Z,0.00
2022-09-26T04:17:41.984Z,0.00
2022-09-26T04:18:42.009Z,0.00
2022-09-26T04:19:42.009Z,0.00
2022-09-26T04:20:41.933Z,0.00
2022-09-26T04:21:41.945Z,0.00
2022-09-26T04:22:41.957Z,0.00
2022-09-26T04:23:41.943Z,0.00
2022-09-26T04:24:41.916Z,0.00
2022-09-26T04:25:41.947Z,0.00
2022-09-26T04:26:41.912Z,0.00
2022-09-26T04:27:41.878Z,0.00
2022-09-26T04:28:41.869Z,0.00
2022-09-26T04:29:41.870Z,0.00
2022-09-26T04:30:41.837Z,0.00
2022-09-26T04:31:41.952Z,0.00
2022-09-26T04:32:41.837Z,0.00
2022-09-26T04:33:41.814Z,0.00
2022-09-26T04:34:41.847Z,0.00
2022-09-26T04:35:41.788Z,0.00
2022-09-26T04:36:41.769Z,0.00
2022-09-26T04:37:41.759Z,0.00
2022-09-26T04:38:41.758Z,0.00
2022-09-26T04:39:41.767Z,0.00
2022-09-26T04:40:42.941Z,0.00
2022-09-26T04:41:41.779Z,0.00
2022-09-26T04:42:41.731Z,0.00
2022-09-26T04:43:41.704Z,0.00
2022-09-26T04:44:41.700Z,0.00
2022-09-26T04:45:41.702Z,0.00
2022-09-26T04:46:41.660Z,0.00
2022-09-26T04:47:41.688Z,0.00
2022-09-26T04:48:41.651Z,0.00
2022-09-26T04:49:41.653Z,0.00
2022-09-26T04:50:41.629Z,0.00
2022-09-26T04:51:41.604Z,0.00
2022-09-26T04:52:41.595Z,0.00
2022-09-26T04:53:41.655Z,0.00
2022-09-26T04:54:41.618Z,0.00
2022-09-26T04:55:41.558Z,0.00
2022-09-26T04:56:41.552Z,4.00
2022-09-26T04:57:41.561Z,0.00
2022-09-26T04:58:41.544Z,4.00
2022-09-26T04:59:41.594Z,4.00
2022-09-26T05:00:41.594Z,4.00
2022-09-26T05:01:41.569Z,8.00
2022-09-26T05:02:41.541Z,8.00
2022-09-26T05:03:41.491Z,12.00
2022-09-26T05:04:41.485Z,8.00
2022-09-26T05:05:41.448Z,16.00
2022-09-26T05:06:41.516Z,16.00
2022-09-26T05:07:41.463Z,24.00
2022-09-26T05:08:41.428Z,32.00
2022-09-26T05:09:41.438Z,40.00
2022-09-26T05:10:41.387Z,48.00
2022-09-26T05:11:41.429Z,56.00
2022-09-26T05:12:41.470Z,64.00
2022-09-26T05:13:41.380Z,76.00
2022-09-26T05:14:41.419Z,88.00
2022-09-26T05:15:41.404Z,100.00
2022-09-26T05:16:41.383Z,108.00
2022-09-26T05:17:41.320Z,120.00
2022-09-26T05:18:41.370Z,140.00
2022-09-26T05:19:41.337Z,168.00
2022-09-26T05:20:41.315Z,188.00
2022-09-26T05:21:41.291Z,208.00
2022-09-26T05:22:41.273Z,232.00
2022-09-26T05:23:44.733Z,252.00
2022-09-26T05:24:41.277Z,268.00
2022-09-26T05:25:41.347Z,280.00
2022-09-26T05:26:41.234Z,300.00
2022-09-26T05:27:41.215Z,324.00
2022-09-26T05:28:41.218Z,356.00
2022-09-26T05:29:41.289Z,408.00
2022-09-26T05:30:41.179Z,468.00
2022-09-26T05:31:41.323Z,536.00
2022-09-26T05:32:41.183Z,612.00
2022-09-26T05:33:41.166Z,684.00
2022-09-26T05:34:41.205Z,772.00
2022-09-26T05:35:41.158Z,852.00
2022-09-26T05:36:41.108Z,936.00
2022-09-26T05:37:41.183Z,1016.00
2022-09-26T05:38:41.107Z,1096.00
2022-09-26T05:39:42.612Z,1164.00
2022-09-26T05:40:41.161Z,1216.00
2022-09-26T05:41:41.057Z,1268.00
2022-09-26T05:42:41.060Z,1320.00
2022-09-26T05:43:41.086Z,1372.00
2022-09-26T05:44:41.045Z,1428.00
2022-09-26T05:45:41.031Z,1468.00
2022-09-26T05:46:41.087Z,1516.00
2022-09-26T05:47:41.051Z,1568.00
2022-09-26T05:48:40.980Z,1620.00
2022-09-26T05:49:41.038Z,1684.00
2022-09-26T05:50:43.558Z,1724.00
2022-09-26T05:51:41.020Z,1740.00
2022-09-26T05:52:40.935Z,1776.00
2022-09-26T05:53:40.922Z,1816.00
2022-09-26T05:54:40.940Z,1876.00
2022-09-26T05:55:40.902Z,1944.00
2022-09-26T05:56:40.932Z,2012.00
2022-09-26T05:57:40.963Z,2092.00
2022-09-26T05:58:40.881Z,2196.00
2022-09-26T05:59:40.915Z,2308.00
2022-09-26T06:00:40.936Z,2428.00
2022-09-26T06:01:40.913Z,2560.00
2022-09-26T06:02:40.870Z,2680.00
2022-09-26T06:03:40.862Z,2784.00
2022-09-26T06:04:40.883Z,2860.00
2022-09-26T06:05:40.812Z,2904.00
2022-09-26T06:06:40.775Z,2976.00
2022-09-26T06:07:40.796Z,3100.00
2022-09-26T06:08:40.813Z,3316.00
2022-09-26T06:09:40.803Z,3552.00
2022-09-26T06:10:40.773Z,3796.00
2022-09-26T06:11:40.764Z,4012.00
2022-09-26T06:12:40.720Z,4200.00
2022-09-26T06:13:40.725Z,4416.00
2022-09-26T06:14:40.701Z,4588.00
2022-09-26T06:15:40.703Z,4660.00
2022-09-26T06:16:40.961Z,4684.00
2022-09-26T06:17:40.707Z,4624.00
2022-09-26T06:18:40.661Z,4556.00
2022-09-26T06:19:40.674Z,4480.00
2022-09-26T06:20:40.679Z,4752.00
2022-09-26T06:21:40.619Z,4116.00
2022-09-26T06:22:40.604Z,4380.00
2022-09-26T06:23:40.618Z,4848.00
2022-09-26T06:24:40.731Z,4816.00
2022-09-26T06:25:40.595Z,6188.00
2022-09-26T06:26:40.562Z,6620.00
2022-09-26T06:27:40.553Z,6628.00
2022-09-26T06:28:40.535Z,7432.00
2022-09-26T06:29:40.632Z,8088.00
2022-09-26T06:30:40.574Z,8264.00
2022-09-26T06:31:40.613Z,8016.00
2022-09-26T06:32:40.514Z,9524.00
2022-09-26T06:33:40.528Z,7900.00
2022-09-26T06:34:40.504Z,8760.00
2022-09-26T06:35:40.474Z,10296.00
2022-09-26T06:36:40.474Z,12504.00
2022-09-26T06:37:40.445Z,12776.00
2022-09-26T06:38:40.438Z,12024.00
2022-09-26T06:39:40.435Z,12076.00
2022-09-26T06:40:40.530Z,11556.00
2022-09-26T06:41:40.399Z,12356.00
2022-09-26T06:42:40.415Z,13228.00
2022-09-26T06:43:40.402Z,13012.00
2022-09-26T06:44:40.408Z,13792.00
2022-09-26T06:45:40.411Z,12836.00
2022-09-26T06:46:40.439Z,13136.00
2022-09-26T06:47:40.389Z,12964.00
2022-09-26T06:48:40.427Z,13172.00
2022-09-26T06:49:40.399Z,14400.00
2022-09-26T06:50:40.333Z,14080.00
2022-09-26T06:51:40.301Z,13204.00
2022-09-26T06:52:40.294Z,13384.00
2022-09-26T06:53:40.287Z,13144.00
2022-09-26T06:54:40.320Z,13920.00
2022-09-26T06:55:40.281Z,14592.00
2022-09-26T06:56:40.266Z,13548.00
2022-09-26T06:57:40.221Z,14944.00
2022-09-26T06:58:40.236Z,15232.00
2022-09-26T06:59:40.214Z,10192.00
2022-09-26T07:00:40.300Z,13632.00
2022-09-26T07:01:40.454Z,13192.00
2022-09-26T07:02:40.165Z,13160.00
2022-09-26T07:03:45.090Z,13652.00
2022-09-26T07:04:41.142Z,12796.00
2022-09-26T07:05:40.205Z,12220.00
2022-09-26T07:06:40.163Z,10872.00
2022-09-26T07:07:40.113Z,10316.00
2022-09-26T07:09:04.708Z,9464.00
2022-09-26T07:09:41.105Z,9184.00
2022-09-26T07:10:40.091Z,9160.00
2022-09-26T07:12:09.978Z,9472.00
2022-09-26T07:12:41.140Z,10520.00
2022-09-26T07:13:40.050Z,11620.00
2022-09-26T07:14:40.036Z,12432.00
2022-09-26T07:15:40.028Z,12204.00
2022-09-26T07:16:40.131Z,11168.00
2022-09-26T07:17:39.999Z,9036.00
2022-09-26T07:18:40.068Z,7736.00
2022-09-26T07:19:40.007Z,7288.00
2022-09-26T07:20:40.002Z,7132.00
2022-09-26T07:21:39.975Z,6996.00
2022-09-26T07:22:39.955Z,6908.00
2022-09-26T07:23:39.984Z,6728.00
2022-09-26T07:24:39.940Z,6056.00
2022-09-26T07:25:39.924Z,7432.00
2022-09-26T07:26:39.956Z,7784.00
2022-09-26T07:27:39.945Z,8100.00
2022-09-26T07:28:39.884Z,8396.00
2022-09-26T07:29:39.930Z,8800.00
2022-09-26T07:30:39.886Z,9304.00
2022-09-26T07:31:39.923Z,9900.00
2022-09-26T07:32:39.876Z,10992.00
2022-09-26T07:33:39.824Z,12740.00
2022-09-26T07:34:39.834Z,13932.00
2022-09-26T07:35:39.843Z,15424.00
2022-09-26T07:36:39.799Z,15360.00
2022-09-26T07:37:39.804Z,16192.00
2022-09-26T07:38:39.782Z,14424.00
2022-09-26T07:39:39.875Z,15488.00
2022-09-26T07:40:39.809Z,17888.00
2022-09-26T07:41:39.767Z,13276.00
2022-09-26T07:42:39.737Z,13168.00
2022-09-26T07:44:19.362Z,13140.00
2022-09-26T07:45:17.512Z,12932.00
2022-09-26T07:45:40.709Z,12572.00
2022-09-26T07:46:39.766Z,12196.00
2022-09-26T07:47:39.691Z,11472.00
2022-09-26T07:48:39.662Z,10676.00
2022-09-26T07:49:39.703Z,10412.00
2022-09-26T07:50:39.634Z,10976.00
2022-09-26T07:51:39.633Z,10776.00
2022-09-26T07:52:39.618Z,11112.00
2022-09-26T07:53:39.621Z,10948.00
2022-09-26T07:54:39.646Z,10836.00
2022-09-26T07:55:39.624Z,10836.00
2022-09-26T07:56:39.569Z,10596.00
2022-09-26T07:57:39.575Z,10296.00
2022-09-26T07:58:39.547Z,9872.00
2022-09-26T07:59:39.572Z,9816.00
2022-09-26T08:00:39.528Z,10380.00
2022-09-26T08:01:39.561Z,9280.00
2022-09-26T08:02:39.605Z,8508.00
2022-09-26T08:03:39.496Z,9660.00
2022-09-26T08:04:39.645Z,9276.00
2022-09-26T08:05:39.493Z,9188.00
2022-09-26T08:06:39.481Z,8004.00
2022-09-26T08:07:39.491Z,8036.00
2022-09-26T08:08:39.488Z,8632.00
2022-09-26T08:09:39.501Z,8464.00
2022-09-26T08:10:39.477Z,8476.00
2022-09-26T08:11:39.432Z,8164.00
2022-09-26T08:12:39.423Z,8508.00
2022-09-26T08:13:39.394Z,8580.00
2022-09-26T08:14:39.387Z,9100.00
2022-09-26T08:15:39.432Z,9116.00
2022-09-26T08:16:39.423Z,6948.00
2022-09-26T08:17:39.351Z,11688.00
2022-09-26T08:18:39.367Z,12052.00
2022-09-26T08:19:39.411Z,14604.00
2022-09-26T08:20:39.339Z,22784.00
2022-09-26T08:21:39.312Z,28224.00
2022-09-26T08:22:39.312Z,1408.00
2022-09-26T08:23:39.283Z,24576.00
2022-09-26T08:24:39.283Z,35072.00
2022-09-26T08:25:39.361Z,34752.00
2022-09-26T08:26:43.866Z,32096.00
2022-09-26T08:27:40.240Z,26976.00
2022-09-26T08:28:39.242Z,20192.00
2022-09-26T08:29:39.246Z,15936.00
2022-09-26T08:30:39.208Z,19968.00
2022-09-26T08:31:39.241Z,27520.00
2022-09-26T08:32:39.172Z,33088.00
2022-09-26T08:33:39.178Z,36992.00
2022-09-26T08:34:39.221Z,39456.00
2022-09-26T08:35:39.155Z,39712.00
2022-09-26T08:36:39.157Z,42144.00
2022-09-26T08:37:39.272Z,49472.00
2022-09-26T08:38:39.114Z,48352.00
2022-09-26T08:39:39.132Z,50848.00
2022-09-26T08:40:39.203Z,24224.00
2022-09-26T08:41:39.177Z,19456.00
2022-09-26T08:42:39.063Z,17984.00
2022-09-26T08:43:39.132Z,46752.00
2022-09-26T08:44:39.127Z,51136.00
2022-09-26T08:45:39.037Z,49312.00
2022-09-26T08:46:39.125Z,46464.00
2022-09-26T08:47:39.125Z,46912.00
2022-09-26T08:48:39.035Z,47904.00
2022-09-26T08:49:39.040Z,47872.00
2022-09-26T08:50:38.974Z,49376.00
2022-09-26T08:51:38.961Z,52128.00
2022-09-26T08:52:39.005Z,53888.00
2022-09-26T08:53:38.962Z,57888.00
2022-09-26T08:54:38.996Z,53248.00
2022-09-26T08:55:39.047Z,60672.00
2022-09-26T08:56:39.017Z,34656.00
2022-09-26T08:57:38.924Z,44736.00
2022-09-26T08:58:38.937Z,45760.00
2022-09-26T08:59:38.878Z,40064.00
2022-09-26T09:00:38.866Z,36640.00
2022-09-26T09:01:39.044Z,33312.00
2022-09-26T09:02:39.050Z,37440.00
2022-09-26T09:03:38.863Z,39136.00
2022-09-26T09:04:38.861Z,35008.00
2022-09-26T09:05:38.826Z,30848.00
2022-09-26T09:06:38.868Z,28192.00
2022-09-26T09:07:38.805Z,25248.00
2022-09-26T09:08:38.844Z,23776.00
2022-09-26T09:09:38.833Z,22432.00
2022-09-26T09:10:38.805Z,22656.00
2022-09-26T09:11:38.748Z,22880.00
2022-09-26T09:12:38.938Z,23008.00
2022-09-26T09:13:38.811Z,23360.00
2022-09-26T09:14:38.821Z,23392.00
2022-09-26T09:15:38.771Z,23040.00
2022-09-26T09:16:38.723Z,23424.00
2022-09-26T09:17:38.705Z,23808.00
2022-09-26T09:18:38.687Z,24032.00
2022-09-26T09:19:38.690Z,24672.00
2022-09-26T09:20:38.673Z,24576.00
2022-09-26T09:21:41.843Z,24544.00
2022-09-26T09:22:38.649Z,25600.00
2022-09-26T09:23:38.725Z,26944.00
2022-09-26T09:24:38.616Z,38560.00
2022-09-26T09:25:38.758Z,28192.00
2022-09-26T09:27:55.237Z,29600.00
2022-09-26T09:28:39.629Z,33120.00
2022-09-26T09:29:38.644Z,33312.00
2022-09-26T09:30:38.556Z,50432.00
2022-09-26T09:31:38.611Z,38784.00
2022-09-26T09:32:38.601Z,42880.00
2022-09-26T09:33:38.582Z,39104.00
2022-09-26T09:34:38.637Z,46592.00
2022-09-26T09:35:38.503Z,53056.00
2022-09-26T09:36:38.499Z,37280.00
2022-09-26T09:37:38.502Z,34112.00
2022-09-26T09:38:38.480Z,31136.00
2022-09-26T09:39:38.440Z,55040.00
2022-09-26T09:40:38.700Z,31808.00
2022-09-26T09:41:38.440Z,29440.00
2022-09-26T09:42:38.491Z,28192.00
2022-09-26T09:43:38.973Z,28064.00
2022-09-26T09:44:40.964Z,26944.00
2022-09-26T09:45:38.393Z,25312.00
2022-09-26T09:46:38.445Z,24320.00
2022-09-26T09:47:38.399Z,25920.00
2022-09-26T09:48:38.420Z,26176.00
2022-09-26T09:49:38.360Z,24928.00
2022-09-26T09:50:38.400Z,22816.00
2022-09-26T09:51:39.427Z,21184.00
2022-09-26T09:52:38.323Z,19968.00
2022-09-26T09:53:38.315Z,19104.00
2022-09-26T09:54:38.318Z,18400.00
2022-09-26T09:55:38.282Z,18752.00
2022-09-26T09:56:38.316Z,19808.00
2022-09-26T09:57:38.291Z,21056.00
2022-09-26T09:58:38.265Z,21664.00
2022-09-26T09:59:38.218Z,22400.00
2022-09-26T10:00:38.495Z,22848.00
2022-09-26T10:01:38.253Z,23904.00
2022-09-26T10:02:38.276Z,26112.00
2022-09-26T10:03:38.208Z,32288.00
2022-09-26T10:04:38.191Z,30496.00
2022-09-26T10:05:38.148Z,37184.00
2022-09-26T10:06:44.140Z,32384.00
2022-09-26T10:07:39.141Z,28192.00
2022-09-26T10:08:38.248Z,25152.00
2022-09-26T10:09:40.007Z,26752.00
2022-09-26T10:10:38.120Z,29824.00
2022-09-26T10:11:38.090Z,30752.00
2022-09-26T10:12:38.125Z,34464.00
2022-09-26T10:13:38.057Z,34944.00
2022-09-26T10:14:38.076Z,32640.00
2022-09-26T10:15:38.129Z,29856.00
2022-09-26T10:16:38.029Z,27552.00
2022-09-26T10:17:38.044Z,24960.00
2022-09-26T10:18:38.190Z,22656.00
2022-09-26T10:19:38.006Z,21184.00
2022-09-26T10:20:38.012Z,21824.00
2022-09-26T10:21:37.987Z,23104.00
2022-09-26T10:22:37.963Z,23328.00
2022-09-26T10:23:37.974Z,23328.00
2022-09-26T10:24:37.999Z,23776.00
2022-09-26T10:25:37.933Z,23712.00
2022-09-26T10:26:37.923Z,23008.00
2022-09-26T10:27:38.072Z,21472.00
2022-09-26T10:28:38.136Z,20352.00
2022-09-26T10:29:37.958Z,20384.00
2022-09-26T10:30:37.901Z,21952.00
2022-09-26T10:31:42.283Z,23936.00
2022-09-26T10:32:38.866Z,23584.00
2022-09-26T10:33:37.905Z,28928.00
2022-09-26T10:34:37.835Z,34944.00
2022-09-26T10:35:37.850Z,34016.00
2022-09-26T10:36:37.917Z,27424.00
2022-09-26T10:37:38.230Z,25280.00
2022-09-26T10:38:37.835Z,23648.00
2022-09-26T10:39:37.853Z,23360.00
2022-09-26T10:40:37.854Z,24416.00
2022-09-26T10:41:37.766Z,26080.00
2022-09-26T10:42:37.744Z,26496.00
2022-09-26T10:43:37.787Z,24928.00
2022-09-26T10:44:37.725Z,22912.00
2022-09-26T10:45:37.897Z,19328.00
2022-09-26T10:46:38.253Z,18016.00
2022-09-26T10:47:37.906Z,17920.00
2022-09-26T10:48:38.004Z,19392.00
2022-09-26T10:49:37.689Z,20448.00
2022-09-26T10:50:37.655Z,20032.00
2022-09-26T10:51:37.653Z,18944.00
2022-09-26T10:52:37.635Z,17664.00
2022-09-26T10:53:38.014Z,16352.00
2022-09-26T10:54:37.681Z,15976.00
2022-09-26T10:55:37.803Z,17024.00
2022-09-26T10:56:38.311Z,18624.00
2022-09-26T10:57:37.822Z,20544.00
2022-09-26T10:58:37.620Z,23072.00
2022-09-26T10:59:37.566Z,24928.00
2022-09-26T11:00:37.601Z,26176.00
2022-09-26T11:01:37.612Z,25184.00
2022-09-26T11:02:37.689Z,23200.00
2022-09-26T11:03:37.601Z,21792.00
2022-09-26T11:04:37.633Z,20672.00
2022-09-26T11:05:37.533Z,19392.00
2022-09-26T11:06:37.504Z,17696.00
2022-09-26T11:07:37.469Z,15696.00
2022-09-26T11:08:37.470Z,14244.00
2022-09-26T11:09:37.566Z,13132.00
2022-09-26T11:10:37.446Z,12352.00
2022-09-26T11:11:37.655Z,12132.00
2022-09-26T11:12:37.486Z,12356.00
2022-09-26T11:13:37.458Z,12744.00
2022-09-26T11:14:37.502Z,12984.00
2022-09-26T11:15:37.464Z,13032.00
2022-09-26T11:16:37.536Z,12760.00
2022-09-26T11:17:37.407Z,12768.00
2022-09-26T11:18:37.379Z,12588.00
2022-09-26T11:19:37.380Z,12324.00
2022-09-26T11:20:37.401Z,12032.00
2022-09-26T11:21:37.432Z,11932.00
2022-09-26T11:22:37.966Z,12264.00
2022-09-26T11:23:37.357Z,12064.00
2022-09-26T11:24:37.348Z,11492.00
2022-09-26T11:25:37.315Z,10788.00
2022-09-26T11:26:37.314Z,10348.00
2022-09-26T11:27:37.252Z,10112.00
2022-09-26T11:28:37.233Z,9976.00
2022-09-26T11:29:37.519Z,9872.00
2022-09-26T11:30:37.231Z,9892.00
2022-09-26T11:31:37.541Z,10248.00
2022-09-26T11:32:37.535Z,10400.00
2022-09-26T11:33:37.179Z,10336.00
2022-09-26T11:34:37.221Z,10112.00
2022-09-26T11:35:37.202Z,9948.00
2022-09-26T11:36:37.148Z,9976.00
2022-09-26T11:37:37.281Z,10196.00
2022-09-26T11:38:37.254Z,10392.00
2022-09-26T11:39:37.198Z,10644.00
2022-09-26T11:40:37.279Z,10956.00
2022-09-26T11:41:37.111Z,11348.00
2022-09-26T11:42:37.090Z,12012.00
2022-09-26T11:43:37.095Z,12928.00
2022-09-26T11:44:37.104Z,13736.00
2022-09-26T11:45:40.830Z,14284.00
2022-09-26T11:46:38.212Z,14296.00
2022-09-26T11:47:37.152Z,13924.00
2022-09-26T11:48:37.061Z,13716.00
2022-09-26T11:49:37.092Z,14368.00
2022-09-26T11:50:37.032Z,15604.00
2022-09-26T11:51:37.022Z,16608.00
2022-09-26T11:52:36.992Z,17824.00
2022-09-26T11:53:37.005Z,18720.00
2022-09-26T11:54:36.986Z,18720.00
2022-09-26T11:55:37.089Z,17856.00
2022-09-26T11:56:37.005Z,16304.00
2022-09-26T11:57:37.901Z,14820.00
2022-09-26T11:58:37.088Z,14032.00
2022-09-26T11:59:37.078Z,14084.00
2022-09-26T12:00:36.893Z,14260.00
2022-09-26T12:01:36.900Z,14464.00
2022-09-26T12:02:36.992Z,15616.00
2022-09-26T12:03:37.049Z,18112.00
2022-09-26T12:04:36.886Z,21280.00
2022-09-26T12:05:37.162Z,24672.00
2022-09-26T12:06:37.115Z,26656.00
2022-09-26T12:07:37.163Z,25568.00
2022-09-26T12:08:37.330Z,23008.00
2022-09-26T12:09:36.859Z,20128.00
2022-09-26T12:10:36.854Z,17856.00
2022-09-26T12:11:36.782Z,17088.00
2022-09-26T12:12:40.453Z,17376.00
2022-09-26T12:13:36.763Z,18304.00
2022-09-26T12:14:36.938Z,19200.00
2022-09-26T12:15:36.887Z,18880.00
2022-09-26T12:16:37.535Z,17984.00
2022-09-26T12:17:36.964Z,17248.00
2022-09-26T12:18:36.711Z,18304.00
2022-09-26T12:19:36.799Z,20352.00
2022-09-26T12:20:36.687Z,21056.00
2022-09-26T12:21:36.689Z,18976.00
2022-09-26T12:22:36.663Z,16672.00
2022-09-26T12:23:36.949Z,15028.00
2022-09-26T12:24:36.744Z,15256.00
2022-09-26T12:25:37.456Z,16640.00
2022-09-26T12:26:36.626Z,18848.00